Pagrindinis puslapis
METAR-TAF:

METAR-TAF

Oro uostai :

Kaselis, Vokietija

platuma: 51-24N, ilguma: 009-23E, Aukštis: 277 m

Dabartinis oras

Ataskaita buvo paskelbta 14 minutes, ne 11:50 UTC
Vėjas 9 kt iš Šiaurės/Šiaurės Vakarų, svyruoja nuo Vakarų/Šiaurės Vakarų ir Šiaurės/Šiaurės Rytų
Temperatūra 17°C
Drėgmė 48%
Slėgis 1024 hPa
Matomumas 10 km arba daugiau
Išsisklaidę debesys ne aukštis 4900 ft

METAR: EDVK 111150Z 33009KT 290V020 9999 SCT049 17/06 Q1024

Laikas: 14:04 (12:04 UTC)

Prognozė

Ataskaita buvo paskelbta 1 valandą ir 4 minutes, ne 11:00 UTC
Prognozė galioja nuo 11 metu 12 UTC su 11 metu 21 UTC
Vėjas 7 kt iš Šiaurės Vakarų
Matomumas 10 km arba daugiau
Išsisklaidę debesys ne aukštis 4000 ft

TAF: EDVK 111100Z 1112/1121 32007KT 9999 SCT040

Orai ataskaitas ir orų prognozės (METAR, TAF).

turimą stotys yra geltonos ir raudonos taškus žemėlapyje.

Perkelti pele per norėdami pamatyti stoties vardą.

Tada spustelėkite, norėdami matyti oro stebėjimo ir prognozės.

Norėdami pakeisti žemėlapį: spustelėkite ant žalios mygtukų su juodo kryžiaus žemyn,; žalią mygtuką su brūkšneliu, jei norite nutolinti; arba žalių rodyklių gretimoms žemėlapius.


METAR-TAF: